createdAt,value
2019-02-20T00:00:45.361Z,91.20
2019-02-20T00:03:14.162Z,91.20
2019-02-20T00:05:43.448Z,91.30
2019-02-20T00:08:12.338Z,91.30
2019-02-20T00:10:41.255Z,91.40
2019-02-20T00:13:10.601Z,91.40
2019-02-20T00:15:40.033Z,91.30
2019-02-20T00:18:08.874Z,91.50
2019-02-20T00:20:37.715Z,91.40
2019-02-20T00:23:06.548Z,91.60
2019-02-20T00:25:35.508Z,91.90
2019-02-20T00:28:04.867Z,91.90
2019-02-20T00:30:34.162Z,92.00
2019-02-20T00:33:03.052Z,91.90
2019-02-20T00:35:31.823Z,91.80
2019-02-20T00:38:01.088Z,91.70
2019-02-20T00:40:29.872Z,91.80
2019-02-20T00:42:58.758Z,91.80
2019-02-20T00:45:35.585Z,91.90
2019-02-20T00:48:12.515Z,91.80
2019-02-20T00:50:43.427Z,91.70
2019-02-20T00:53:17.256Z,91.70
2019-02-20T00:55:46.047Z,91.70
2019-02-20T00:58:15.255Z,91.80
2019-02-20T01:00:44.071Z,91.80
2019-02-20T01:03:12.911Z,91.80
2019-02-20T01:05:41.675Z,91.70
2019-02-20T01:08:10.427Z,91.80
2019-02-20T01:10:39.591Z,91.60
2019-02-20T01:13:08.944Z,91.60
2019-02-20T01:15:37.746Z,91.60
2019-02-20T01:18:06.520Z,91.60
2019-02-20T01:20:35.999Z,91.30
2019-02-20T01:23:05.274Z,91.10
2019-02-20T01:25:34.525Z,91.00
2019-02-20T01:28:04.265Z,91.10
2019-02-20T01:30:33.577Z,91.00
2019-02-20T01:33:02.877Z,90.90
2019-02-20T01:35:32.307Z,90.80
2019-02-20T01:38:01.655Z,90.90
2019-02-20T01:40:30.933Z,90.90
2019-02-20T01:43:00.313Z,90.90
2019-02-20T01:45:29.087Z,90.90
2019-02-20T01:47:57.889Z,90.80
2019-02-20T01:50:27.250Z,90.60
2019-02-20T01:52:56.366Z,90.30
2019-02-20T01:55:25.549Z,90.30
2019-02-20T01:57:54.873Z,90.40
2019-02-20T02:00:24.087Z,90.50
2019-02-20T02:02:52.924Z,90.60
2019-02-20T02:05:22.258Z,90.60
2019-02-20T02:07:51.454Z,90.50
2019-02-20T02:10:20.241Z,90.40
2019-02-20T02:12:49.681Z,90.50
2019-02-20T02:15:20.763Z,90.40
2019-02-20T02:17:49.497Z,90.30
2019-02-20T02:20:18.781Z,90.20
2019-02-20T02:22:47.918Z,90.10
2019-02-20T02:25:17.369Z,90.10
2019-02-20T02:27:46.662Z,90.00
2019-02-20T02:30:15.847Z,90.00
2019-02-20T02:32:44.643Z,90.00
2019-02-20T02:35:13.512Z,90.10
2019-02-20T02:37:42.730Z,90.00
2019-02-20T02:40:12.034Z,90.10
2019-02-20T02:42:41.426Z,90.10
2019-02-20T02:45:10.238Z,89.80
2019-02-20T02:47:39.087Z,90.00
2019-02-20T02:50:08.532Z,90.00
2019-02-20T02:52:37.391Z,90.00
2019-02-20T02:55:06.357Z,90.20
2019-02-20T02:57:35.597Z,90.30
2019-02-20T03:00:07.654Z,90.50
2019-02-20T03:02:36.881Z,90.60
2019-02-20T03:05:07.411Z,90.60
2019-02-20T03:07:36.211Z,90.80
2019-02-20T03:10:06.706Z,90.90
2019-02-20T03:12:35.927Z,91.00
2019-02-20T03:15:07.943Z,90.90
2019-02-20T03:17:36.712Z,90.90
2019-02-20T03:20:08.255Z,90.80
2019-02-20T03:22:37.723Z,91.20
2019-02-20T03:25:07.421Z,90.90
2019-02-20T03:27:36.848Z,91.00
2019-02-20T03:30:06.578Z,91.10
2019-02-20T03:32:36.176Z,91.10
2019-02-20T03:35:06.764Z,91.30
2019-02-20T03:37:35.722Z,91.30
2019-02-20T03:40:06.748Z,91.50
2019-02-20T03:42:35.619Z,91.70
2019-02-20T03:45:05.996Z,91.80
2019-02-20T03:47:35.320Z,91.80
2019-02-20T03:50:05.222Z,91.90
2019-02-20T03:52:34.573Z,91.80
2019-02-20T03:55:04.698Z,91.90
2019-02-20T03:57:33.605Z,91.90
2019-02-20T04:00:02.852Z,91.90
2019-02-20T04:02:32.136Z,91.80
2019-02-20T04:05:01.283Z,91.80
2019-02-20T04:07:30.622Z,91.80
2019-02-20T04:09:59.524Z,91.80
2019-02-20T04:12:28.923Z,91.60
2019-02-20T04:14:58.262Z,91.50
2019-02-20T04:17:27.423Z,91.40
2019-02-20T04:19:56.315Z,91.10
2019-02-20T04:22:25.643Z,91.50
2019-02-20T04:24:54.927Z,91.40
2019-02-20T04:27:24.307Z,91.50
2019-02-20T04:29:53.608Z,91.40
2019-02-20T04:32:22.450Z,91.50
2019-02-20T04:34:51.328Z,91.40
2019-02-20T04:37:20.630Z,91.40
2019-02-20T04:39:49.521Z,91.50
2019-02-20T04:42:18.843Z,91.50
2019-02-20T04:44:48.232Z,91.50
2019-02-20T04:47:17.632Z,91.60
2019-02-20T04:49:46.489Z,91.70
2019-02-20T04:52:15.909Z,91.70
2019-02-20T04:54:44.956Z,91.70
2019-02-20T04:57:14.449Z,91.70
2019-02-20T04:59:43.304Z,91.90
2019-02-20T05:02:12.456Z,91.90
2019-02-20T05:04:41.874Z,91.90
2019-02-20T05:07:11.187Z,91.80
2019-02-20T05:09:40.665Z,91.90
2019-02-20T05:12:10.134Z,91.90
2019-02-20T05:14:39.519Z,92.00
2019-02-20T05:17:09.366Z,92.10
2019-02-20T05:19:39.666Z,92.10
2019-02-20T05:22:09.895Z,92.10
2019-02-20T05:24:38.777Z,92.30
2019-02-20T05:29:54.567Z,92.60
2019-02-20T05:32:23.955Z,92.80
2019-02-20T05:34:53.297Z,92.80
2019-02-20T05:37:22.231Z,92.90
2019-02-20T05:39:51.841Z,92.70
2019-02-20T05:42:21.133Z,92.50
2019-02-20T05:44:49.812Z,92.50
2019-02-20T05:47:18.504Z,92.40
2019-02-20T05:49:47.138Z,92.50
2019-02-20T05:52:15.804Z,92.50
2019-02-20T05:54:44.329Z,92.60
2019-02-20T05:57:13.012Z,92.70
2019-02-20T05:59:41.564Z,92.70
2019-02-20T06:02:10.251Z,92.70
2019-02-20T06:04:39.003Z,92.80
2019-02-20T06:07:07.688Z,92.70
2019-02-20T06:09:36.432Z,92.90
2019-02-20T06:12:04.957Z,92.90
2019-02-20T06:14:33.623Z,93.00
2019-02-20T06:17:02.321Z,93.30
2019-02-20T06:19:30.864Z,92.90
2019-02-20T06:21:59.581Z,92.70
2019-02-20T06:24:28.145Z,92.70
2019-02-20T06:26:56.808Z,92.40
2019-02-20T06:29:25.387Z,92.40
2019-02-20T06:31:54.130Z,92.40
2019-02-20T06:34:22.900Z,92.40
2019-02-20T06:36:51.622Z,92.40
2019-02-20T06:39:20.392Z,92.40
2019-02-20T06:41:48.988Z,92.20
2019-02-20T06:44:17.501Z,92.30
2019-02-20T06:46:46.350Z,92.20
2019-02-20T06:49:15.043Z,92.10
2019-02-20T06:51:43.742Z,92.00
2019-02-20T06:54:12.430Z,92.20
2019-02-20T06:56:41.118Z,92.00
2019-02-20T06:59:09.774Z,91.90
2019-02-20T07:01:38.513Z,91.70
2019-02-20T07:04:07.124Z,91.70
2019-02-20T07:06:44.993Z,91.70
2019-02-20T07:09:45.700Z,91.40
2019-02-20T07:12:41.304Z,91.20
2019-02-20T07:15:28.033Z,91.00
2019-02-20T07:18:11.659Z,90.80
2019-02-20T07:21:15.448Z,90.60
2019-02-20T07:24:08.321Z,88.10
2019-02-20T07:26:59.521Z,82.10
2019-02-20T07:29:44.692Z,74.40
2019-02-20T07:32:15.570Z,70.20
2019-02-20T07:34:44.332Z,68.10
2019-02-20T07:37:13.141Z,64.20
2019-02-20T07:39:41.707Z,59.80
2019-02-20T07:42:10.213Z,57.40
2019-02-20T07:44:38.974Z,58.00
2019-02-20T07:47:07.594Z,60.00
2019-02-20T07:49:36.315Z,63.00
2019-02-20T07:52:04.957Z,66.10
2019-02-20T07:54:33.575Z,69.40
2019-02-20T07:57:02.286Z,72.00
2019-02-20T07:59:30.950Z,74.00
2019-02-20T08:01:59.663Z,75.80
2019-02-20T08:04:28.403Z,77.00
2019-02-20T08:06:56.995Z,78.50
2019-02-20T08:09:25.677Z,79.20
2019-02-20T08:11:54.325Z,80.00
2019-02-20T08:14:23.105Z,80.40
2019-02-20T08:16:52.864Z,80.50
2019-02-20T08:19:22.050Z,80.40
2019-02-20T08:21:50.930Z,80.50
2019-02-20T08:24:19.685Z,80.90
2019-02-20T08:26:48.466Z,81.40
2019-02-20T08:29:17.182Z,81.10
2019-02-20T08:31:45.883Z,81.00
2019-02-20T08:34:14.458Z,81.10
2019-02-20T08:36:43.145Z,81.30
2019-02-20T08:39:11.831Z,81.60
2019-02-20T08:41:40.403Z,81.90
2019-02-20T08:44:09.113Z,81.50
2019-02-20T08:46:37.787Z,81.50
2019-02-20T08:49:06.430Z,81.70
2019-02-20T08:51:35.061Z,81.60
2019-02-20T08:54:04.400Z,81.80
2019-02-20T08:56:33.243Z,82.00
2019-02-20T08:59:01.816Z,81.60
2019-02-20T09:01:30.517Z,81.80
2019-02-20T09:03:59.764Z,82.00
2019-02-20T09:06:28.430Z,82.10
2019-02-20T09:08:57.104Z,82.20
2019-02-20T09:11:25.901Z,82.40
2019-02-20T09:13:54.651Z,82.50
2019-02-20T09:16:23.401Z,83.10
2019-02-20T09:18:52.115Z,82.90
2019-02-20T09:21:20.779Z,83.50
2019-02-20T09:23:49.305Z,83.60
2019-02-20T09:26:17.911Z,83.60
2019-02-20T09:28:46.835Z,83.30
2019-02-20T09:31:15.464Z,83.40
2019-02-20T09:33:44.167Z,83.30
2019-02-20T09:36:12.701Z,82.90
2019-02-20T09:38:41.467Z,83.20
2019-02-20T09:41:10.236Z,83.80
2019-02-20T09:43:38.791Z,83.40
2019-02-20T09:46:07.420Z,83.40
2019-02-20T09:48:36.028Z,83.90
2019-02-20T09:51:04.772Z,83.80
2019-02-20T09:53:33.421Z,83.30
2019-02-20T09:56:01.976Z,82.50
2019-02-20T09:58:30.573Z,82.20
2019-02-20T10:00:59.375Z,82.40
2019-02-20T10:03:28.113Z,82.40
2019-02-20T10:05:56.713Z,82.10
2019-02-20T10:08:25.389Z,82.80
2019-02-20T10:10:54.000Z,82.70
2019-02-20T10:13:22.791Z,82.60
2019-02-20T10:15:51.492Z,82.30
2019-02-20T10:18:20.126Z,82.00
2019-02-20T10:20:48.832Z,82.20
2019-02-20T10:23:17.487Z,82.80
2019-02-20T10:25:46.186Z,82.70
2019-02-20T10:28:14.904Z,82.50
2019-02-20T10:30:43.470Z,83.80
2019-02-20T10:33:11.985Z,84.20
2019-02-20T10:35:40.753Z,83.30
2019-02-20T10:38:09.268Z,83.10
2019-02-20T10:40:37.997Z,82.20
2019-02-20T10:43:06.831Z,81.20
2019-02-20T10:45:35.597Z,80.30
2019-02-20T10:48:04.154Z,80.20
2019-02-20T10:50:32.955Z,80.10
2019-02-20T10:53:01.677Z,78.40
2019-02-20T10:55:30.335Z,78.20
2019-02-20T10:57:59.166Z,77.50
2019-02-20T11:00:31.105Z,77.50
2019-02-20T11:02:59.904Z,77.80
2019-02-20T11:05:28.576Z,77.50
2019-02-20T11:07:57.371Z,78.30
2019-02-20T11:10:26.038Z,78.30
2019-02-20T11:12:54.748Z,77.00
2019-02-20T11:15:23.394Z,75.10
2019-02-20T11:17:52.304Z,73.10
2019-02-20T11:20:21.715Z,74.30
2019-02-20T11:22:50.336Z,73.80
2019-02-20T11:25:18.986Z,73.40
2019-02-20T11:27:47.628Z,72.50
2019-02-20T11:30:19.597Z,72.50
2019-02-20T11:32:48.334Z,71.00
2019-02-20T11:35:17.110Z,70.30
2019-02-20T11:37:45.885Z,69.70
2019-02-20T11:40:14.608Z,69.10
2019-02-20T11:42:43.222Z,68.20
2019-02-20T11:45:16.279Z,68.10
2019-02-20T11:47:44.968Z,67.90
2019-02-20T11:50:13.674Z,68.60
2019-02-20T11:52:42.759Z,68.80
2019-02-20T11:55:12.979Z,67.40
2019-02-20T11:57:41.763Z,67.30
2019-02-20T12:00:13.008Z,62.40
2019-02-20T12:02:42.239Z,60.20
2019-02-20T12:05:11.092Z,59.10
2019-02-20T12:07:39.641Z,59.40
2019-02-20T12:10:12.604Z,57.80
2019-02-20T12:12:41.042Z,57.90
2019-02-20T12:15:09.602Z,57.50
2019-02-20T12:17:38.286Z,56.10
2019-02-20T12:20:08.398Z,56.20
2019-02-20T12:22:37.031Z,57.30
2019-02-20T12:25:07.990Z,58.00
2019-02-20T12:27:36.827Z,57.40
2019-02-20T12:30:11.108Z,58.30
2019-02-20T12:32:39.774Z,59.00
2019-02-20T12:35:09.270Z,58.90
2019-02-20T12:37:37.922Z,59.00
2019-02-20T12:40:08.342Z,59.80
2019-02-20T12:42:37.137Z,60.40
2019-02-20T12:45:07.364Z,60.20
2019-02-20T12:47:36.137Z,61.40
2019-02-20T12:50:07.826Z,62.40
2019-02-20T12:52:37.067Z,63.70
2019-02-20T12:55:07.207Z,63.10
2019-02-20T12:57:35.989Z,63.20
2019-02-20T13:00:07.630Z,60.10
2019-02-20T13:02:36.323Z,59.20
2019-02-20T13:05:06.304Z,59.60
2019-02-20T13:07:34.970Z,60.00
2019-02-20T13:10:03.652Z,59.70
2019-02-20T13:12:32.270Z,60.40
2019-02-20T13:15:00.830Z,59.60
2019-02-20T13:17:29.989Z,60.90
2019-02-20T13:19:58.728Z,61.40
2019-02-20T13:22:27.385Z,62.20
2019-02-20T13:24:55.920Z,63.20
2019-02-20T13:27:24.632Z,64.50
2019-02-20T13:29:53.259Z,63.70
2019-02-20T13:32:22.023Z,61.80
2019-02-20T13:34:50.796Z,61.50
2019-02-20T13:37:19.496Z,61.70
2019-02-20T13:39:48.142Z,61.10
2019-02-20T13:42:17.268Z,61.40
2019-02-20T13:44:45.915Z,62.40
2019-02-20T13:47:14.574Z,62.30
2019-02-20T13:49:43.330Z,63.30
2019-02-20T13:52:12.026Z,62.40
2019-02-20T13:54:42.365Z,62.50
2019-02-20T13:57:11.069Z,62.50
2019-02-20T13:59:40.081Z,61.40
2019-02-20T14:02:08.650Z,60.80
2019-02-20T14:04:37.402Z,61.20
2019-02-20T14:07:06.083Z,61.90
2019-02-20T14:09:34.732Z,61.90
2019-02-20T14:12:03.521Z,62.50
2019-02-20T14:14:32.311Z,65.80
2019-02-20T14:17:02.287Z,67.60
2019-02-20T14:19:30.972Z,69.40
2019-02-20T14:22:00.043Z,69.30
2019-02-20T14:24:28.717Z,70.40
2019-02-20T14:26:57.523Z,70.80
2019-02-20T14:29:26.279Z,69.40
2019-02-20T14:31:55.411Z,68.50
2019-02-20T14:34:24.072Z,67.00
2019-02-20T14:36:52.689Z,66.30
2019-02-20T14:39:21.596Z,66.90
2019-02-20T14:41:50.361Z,68.80
2019-02-20T14:44:19.128Z,69.70
2019-02-20T14:46:47.843Z,67.60
2019-02-20T14:49:16.886Z,67.30
2019-02-20T14:51:45.679Z,67.10
2019-02-20T14:54:14.430Z,63.90
2019-02-20T14:56:43.216Z,62.40
2019-02-20T14:59:11.765Z,63.10
2019-02-20T15:01:40.530Z,62.50
2019-02-20T15:04:09.812Z,61.60
2019-02-20T15:06:38.545Z,61.50
2019-02-20T15:09:07.863Z,60.40
2019-02-20T15:11:36.594Z,59.10
2019-02-20T15:14:05.320Z,59.00
2019-02-20T15:16:34.156Z,58.30
2019-02-20T15:19:02.946Z,58.40
2019-02-20T15:21:31.664Z,58.20
2019-02-20T15:24:00.279Z,59.30
2019-02-20T15:26:28.970Z,60.00
2019-02-20T15:28:57.639Z,59.50
2019-02-20T15:31:33.492Z,59.00
2019-02-20T15:33:57.177Z,58.80
2019-02-20T15:36:26.128Z,59.50
2019-02-20T15:38:54.803Z,59.60
2019-02-20T15:41:23.694Z,59.30
2019-02-20T15:43:52.407Z,58.80
2019-02-20T15:46:21.011Z,59.60
2019-02-20T15:48:49.960Z,60.30
2019-02-20T15:51:18.782Z,59.50
2019-02-20T15:53:47.565Z,59.30
2019-02-20T15:56:16.108Z,58.00
2019-02-20T15:58:45.055Z,57.70
2019-02-20T16:01:13.631Z,58.10
2019-02-20T16:03:42.341Z,59.00
2019-02-20T16:06:10.984Z,59.30
2019-02-20T16:08:40.092Z,59.20
2019-02-20T16:11:08.893Z,59.30
2019-02-20T16:13:37.458Z,59.60
2019-02-20T16:16:06.127Z,59.70
2019-02-20T16:18:34.946Z,60.00
2019-02-20T16:21:03.739Z,60.30
2019-02-20T16:23:32.436Z,61.40
2019-02-20T16:26:02.289Z,60.70
2019-02-20T16:28:33.799Z,60.50
2019-02-20T16:31:01.557Z,61.20
2019-02-20T16:33:30.343Z,62.50
2019-02-20T16:35:59.097Z,62.40
2019-02-20T16:38:28.235Z,62.30
2019-02-20T16:44:26.449Z,62.30
2019-02-20T16:46:55.696Z,62.70
2019-02-20T16:49:24.407Z,62.00
2019-02-20T16:51:53.643Z,62.60
2019-02-20T16:54:22.928Z,63.70
2019-02-20T16:56:52.126Z,63.20
2019-02-20T16:59:21.709Z,63.00
2019-02-20T17:01:51.204Z,61.80
2019-02-20T17:04:21.666Z,61.70
2019-02-20T17:06:50.483Z,62.20
2019-02-20T17:09:19.351Z,61.80
2019-02-20T17:11:50.230Z,62.10
2019-02-20T17:14:19.738Z,61.40
2019-02-20T17:16:49.094Z,59.80
2019-02-20T17:19:18.557Z,60.50
2019-02-20T17:21:47.739Z,61.20
2019-02-20T17:24:17.190Z,61.80
2019-02-20T17:26:46.289Z,61.70
2019-02-20T17:29:15.250Z,62.60
2019-02-20T17:31:44.735Z,61.70
2019-02-20T17:34:14.422Z,60.60
2019-02-20T17:36:43.455Z,61.20
2019-02-20T17:39:12.397Z,61.50
2019-02-20T17:41:41.276Z,60.90
2019-02-20T17:44:10.226Z,60.80
2019-02-20T17:46:40.093Z,59.90
2019-02-20T17:49:09.297Z,59.50
2019-02-20T17:51:39.118Z,61.40
2019-02-20T17:54:08.016Z,61.00
2019-02-20T17:56:36.884Z,61.20
2019-02-20T17:59:06.725Z,61.50
2019-02-20T18:01:36.835Z,60.80
2019-02-20T18:04:06.441Z,60.70
2019-02-20T18:06:35.519Z,60.00
2019-02-20T18:09:05.355Z,60.40
2019-02-20T18:11:35.287Z,60.60
2019-02-20T18:14:04.954Z,61.50
2019-02-20T18:16:34.794Z,61.50
2019-02-20T18:19:03.889Z,62.30
2019-02-20T18:21:33.514Z,61.70
2019-02-20T18:24:03.413Z,61.50
2019-02-20T18:26:33.253Z,60.10
2019-02-20T18:29:02.913Z,59.10
2019-02-20T18:31:32.255Z,57.90
2019-02-20T18:34:01.942Z,58.70
2019-02-20T18:36:31.647Z,60.60
2019-02-20T18:39:01.491Z,62.80
2019-02-20T18:41:31.017Z,62.20
2019-02-20T18:44:00.950Z,60.40
2019-02-20T18:46:30.971Z,58.90
2019-02-20T18:49:01.026Z,59.00
2019-02-20T18:51:30.564Z,59.20
2019-02-20T18:54:00.193Z,59.20
2019-02-20T18:56:30.039Z,58.60
2019-02-20T18:58:59.442Z,58.90
2019-02-20T19:01:29.492Z,59.80
2019-02-20T19:03:59.121Z,60.70
2019-02-20T19:06:29.377Z,59.70
2019-02-20T19:08:59.474Z,59.20
2019-02-20T19:11:34.072Z,59.20
2019-02-20T19:14:19.134Z,59.60
2019-02-20T19:17:08.709Z,60.80
2019-02-20T19:19:55.618Z,59.40
2019-02-20T19:22:46.798Z,59.20
2019-02-20T19:25:40.005Z,59.40
2019-02-20T19:28:17.944Z,58.40
2019-02-20T19:31:06.381Z,58.10
2019-02-20T19:33:57.958Z,57.80
2019-02-20T19:37:03.272Z,57.50
2019-02-20T19:39:35.254Z,57.20
2019-02-20T19:42:19.370Z,57.60
2019-02-20T19:44:56.944Z,57.80
2019-02-20T19:47:37.798Z,57.70
2019-02-20T19:50:36.685Z,57.80
2019-02-20T19:53:11.450Z,58.00
2019-02-20T19:56:04.955Z,58.30
2019-02-20T19:59:01.141Z,58.80
2019-02-20T20:01:30.923Z,58.60
2019-02-20T20:04:09.199Z,58.20
2019-02-20T20:06:53.105Z,57.30
2019-02-20T20:09:42.145Z,57.50
2019-02-20T20:12:16.706Z,57.80
2019-02-20T20:15:22.820Z,58.10
2019-02-20T20:18:10.204Z,58.60
2019-02-20T20:20:45.832Z,58.30
2019-02-20T20:23:33.658Z,58.60
2019-02-20T20:26:05.843Z,59.20
2019-02-20T20:28:43.725Z,59.70
2019-02-20T20:31:25.110Z,60.30
2019-02-20T20:34:09.668Z,61.10
2019-02-20T20:36:59.624Z,62.50
2019-02-20T20:39:37.826Z,62.00
2019-02-20T20:42:25.181Z,62.70
2019-02-20T20:45:18.941Z,61.70
2019-02-20T20:47:56.892Z,61.60
2019-02-20T20:50:45.096Z,62.30
2019-02-20T20:53:21.049Z,62.50
2019-02-20T20:56:21.865Z,63.40
2019-02-20T20:58:53.741Z,62.50
2019-02-20T21:01:36.551Z,61.60
2019-02-20T21:04:15.063Z,62.40
2019-02-20T21:07:04.293Z,63.20
2019-02-20T21:09:48.811Z,63.40
2019-02-20T21:12:38.938Z,63.90
2019-02-20T21:15:25.695Z,63.20
2019-02-20T21:18:14.944Z,62.70
2019-02-20T21:21:07.162Z,62.90
2019-02-20T21:24:12.945Z,61.30
2019-02-20T21:26:50.531Z,61.00
2019-02-20T21:29:28.506Z,61.30
2019-02-20T21:32:27.973Z,61.90
2019-02-20T21:35:00.297Z,62.20
2019-02-20T21:38:04.266Z,63.20
2019-02-20T21:40:41.965Z,63.30
2019-02-20T21:43:39.568Z,61.90
2019-02-20T21:46:34.070Z,61.60
2019-02-20T21:49:23.939Z,63.10
2019-02-20T21:52:20.655Z,63.20
2019-02-20T21:55:01.563Z,62.20
2019-02-20T21:57:48.925Z,62.80
2019-02-20T22:00:52.287Z,64.10
2019-02-20T22:03:33.319Z,64.90
2019-02-20T22:06:11.106Z,65.70
2019-02-20T22:08:48.947Z,64.80
2019-02-20T22:11:29.575Z,63.80
2019-02-20T22:14:10.069Z,61.00
2019-02-20T22:17:15.315Z,60.50
2019-02-20T22:20:05.616Z,60.00
2019-02-20T22:22:40.575Z,60.60
2019-02-20T22:25:27.650Z,60.90
2019-02-20T22:28:02.650Z,61.70
2019-02-20T22:30:59.064Z,62.50
2019-02-20T22:33:39.842Z,62.60
2019-02-20T22:36:12.037Z,61.40
2019-02-20T22:38:53.262Z,61.60
2019-02-20T22:41:33.932Z,62.60
2019-02-20T22:44:25.651Z,63.20
2019-02-20T22:47:11.112Z,63.90
2019-02-20T22:50:09.296Z,64.30
2019-02-20T22:52:50.367Z,64.50
2019-02-20T22:55:22.401Z,63.30
2019-02-20T22:58:07.015Z,62.30
2019-02-20T23:00:54.671Z,61.90
2019-02-20T23:03:30.381Z,61.20
2019-02-20T23:06:17.650Z,61.20
2019-02-20T23:08:52.256Z,61.70
2019-02-20T23:11:42.132Z,62.90
2019-02-20T23:14:23.472Z,62.50
2019-02-20T23:20:33.820Z,61.60
2019-02-20T23:23:03.281Z,61.30
2019-02-20T23:25:32.448Z,61.60
2019-02-20T23:28:01.906Z,62.10
2019-02-20T23:30:30.977Z,62.80
2019-02-20T23:33:00.732Z,62.80
2019-02-20T23:35:29.877Z,62.50
2019-02-20T23:37:59.160Z,62.50
2019-02-20T23:40:28.392Z,63.20
2019-02-20T23:42:57.822Z,63.50
2019-02-20T23:45:27.180Z,64.20
2019-02-20T23:47:56.419Z,64.20
2019-02-20T23:50:25.873Z,64.10
2019-02-20T23:52:55.377Z,63.40
2019-02-20T23:55:24.571Z,61.80
2019-02-20T23:57:53.359Z,61.80
